createdAt,value
2018-04-30T00:03:17.118Z,99103.81
2018-04-30T00:05:45.390Z,99112.11
2018-04-30T00:08:13.665Z,99119.09
2018-04-30T00:10:41.942Z,99105.62
2018-04-30T00:13:10.537Z,99111.13
2018-04-30T00:15:38.802Z,99113.93
2018-04-30T00:18:07.080Z,99147.77
2018-04-30T00:20:35.354Z,99178.83
2018-04-30T00:23:03.631Z,99182.48
2018-04-30T00:25:31.910Z,99131.52
2018-04-30T00:28:00.170Z,99106.66
2018-04-30T00:30:28.766Z,99114.08
2018-04-30T00:32:57.040Z,99119.89
2018-04-30T00:35:25.321Z,99110.20
2018-04-30T00:37:53.595Z,99110.79
2018-04-30T00:40:21.872Z,99098.80
2018-04-30T00:42:50.153Z,99096.45
2018-04-30T00:45:18.415Z,99097.28
2018-04-30T00:47:46.684Z,99105.08
2018-04-30T00:50:14.950Z,99123.64
2018-04-30T00:52:43.223Z,99120.02
2018-04-30T00:55:11.506Z,99117.61
2018-04-30T00:57:39.786Z,99107.81
2018-04-30T01:00:08.062Z,99100.31
2018-04-30T01:02:36.338Z,99103.61
2018-04-30T01:05:04.615Z,99108.75
2018-04-30T01:07:32.890Z,99116.27
2018-04-30T01:10:01.181Z,99112.50
2018-04-30T01:12:29.476Z,99101.11
2018-04-30T01:14:57.797Z,99099.36
2018-04-30T01:17:26.090Z,99106.43
2018-04-30T01:19:54.372Z,99109.93
2018-04-30T01:22:22.649Z,99105.06
2018-04-30T01:24:50.922Z,99107.53
2018-04-30T01:27:19.206Z,99108.73
2018-04-30T01:29:47.483Z,99112.44
2018-04-30T01:32:15.767Z,99110.65
2018-04-30T01:34:44.027Z,99116.37
2018-04-30T01:37:12.623Z,99115.61
2018-04-30T01:39:40.893Z,99116.59
2018-04-30T01:42:09.175Z,99111.16
2018-04-30T01:44:37.530Z,99122.48
2018-04-30T01:47:05.742Z,99120.08
2018-04-30T01:49:34.026Z,99121.51
2018-04-30T01:52:02.303Z,99115.55
2018-04-30T01:54:30.590Z,99115.13
2018-04-30T01:56:58.871Z,99118.86
2018-04-30T01:59:27.146Z,99113.42
2018-04-30T02:01:55.414Z,99117.44
2018-04-30T02:04:23.693Z,99112.96
2018-04-30T02:06:51.963Z,99106.84
2018-04-30T02:09:20.236Z,99098.10
2018-04-30T02:11:48.518Z,99100.81
2018-04-30T02:14:16.790Z,99107.00
2018-04-30T02:16:45.066Z,99112.20
2018-04-30T02:19:13.338Z,99095.79
2018-04-30T02:21:41.620Z,99091.31
2018-04-30T02:24:09.887Z,99097.95
2018-04-30T02:26:38.174Z,99096.25
2018-04-30T02:29:06.454Z,99097.42
2018-04-30T02:31:34.739Z,99099.90
2018-04-30T02:34:03.022Z,99107.63
2018-04-30T02:36:31.298Z,99109.57
2018-04-30T02:38:59.590Z,99103.46
2018-04-30T02:41:27.862Z,99109.92
2018-04-30T02:43:56.150Z,99113.41
2018-04-30T02:46:24.427Z,99128.34
2018-04-30T02:48:52.707Z,99116.48
2018-04-30T02:51:20.990Z,99115.09
2018-04-30T02:53:49.302Z,99113.53
2018-04-30T02:56:17.574Z,99107.50
2018-04-30T02:58:45.847Z,99107.45
2018-04-30T03:01:14.132Z,99118.27
2018-04-30T03:03:42.398Z,99127.77
2018-04-30T03:06:10.691Z,99127.38
2018-04-30T03:08:38.958Z,99118.53
2018-04-30T03:11:07.244Z,99123.59
2018-04-30T03:13:35.506Z,99118.22
2018-04-30T03:16:03.776Z,99114.20
2018-04-30T03:18:32.085Z,99125.77
2018-04-30T03:21:00.335Z,99128.66
2018-04-30T03:23:28.610Z,99128.99
2018-04-30T03:25:56.878Z,99144.77
2018-04-30T03:28:25.153Z,99147.88
2018-04-30T03:30:53.430Z,99165.90
2018-04-30T03:33:21.727Z,99174.07
2018-04-30T03:35:49.994Z,99173.05
2018-04-30T03:38:18.266Z,99172.73
2018-04-30T03:40:46.538Z,99161.66
2018-04-30T03:43:14.814Z,99162.30
2018-04-30T03:45:43.090Z,99163.83
2018-04-30T03:48:11.362Z,99174.45
2018-04-30T03:50:39.637Z,99184.66
2018-04-30T03:53:07.908Z,99193.45
2018-04-30T03:55:36.173Z,99192.23
2018-04-30T03:58:04.438Z,99198.75
2018-04-30T04:00:44.651Z,99198.03
2018-04-30T04:03:24.738Z,99201.50
2018-04-30T04:06:04.656Z,99186.19
2018-04-30T04:08:32.941Z,99183.41
2018-04-30T04:11:01.206Z,99184.89
2018-04-30T04:13:29.479Z,99189.41
2018-04-30T04:15:57.749Z,99188.30
2018-04-30T04:18:26.032Z,99193.95
2018-04-30T04:20:54.302Z,99197.98
2018-04-30T04:23:22.578Z,99206.72
2018-04-30T04:25:50.844Z,99211.74
2018-04-30T04:28:19.121Z,99211.63
2018-04-30T04:30:47.396Z,99215.16
2018-04-30T04:33:15.675Z,99221.22
2018-04-30T04:35:43.951Z,99216.68
2018-04-30T04:38:12.226Z,99214.01
2018-04-30T04:40:40.502Z,99212.56
2018-04-30T04:43:08.774Z,99215.18
2018-04-30T04:45:37.055Z,99205.55
2018-04-30T04:48:05.332Z,99215.69
2018-04-30T04:50:33.634Z,99222.09
2018-04-30T04:53:01.894Z,99229.34
2018-04-30T04:55:30.163Z,99229.53
2018-04-30T04:57:58.438Z,99226.20
2018-04-30T05:00:26.715Z,99221.80
2018-04-30T05:02:54.994Z,99230.47
2018-04-30T05:05:23.257Z,99238.77
2018-04-30T05:07:51.542Z,99243.30
2018-04-30T05:10:19.805Z,99254.66
2018-04-30T05:12:48.093Z,99260.88
2018-04-30T05:15:16.369Z,99249.77
2018-04-30T05:17:44.627Z,99251.82
2018-04-30T05:20:12.901Z,99252.02
2018-04-30T05:22:41.169Z,99249.28
2018-04-30T05:25:09.437Z,99245.05
2018-04-30T05:27:37.702Z,99255.06
2018-04-30T05:30:05.978Z,99244.84
2018-04-30T05:32:34.239Z,99250.57
2018-04-30T05:35:02.526Z,99263.24
2018-04-30T05:37:30.822Z,99271.60
2018-04-30T05:39:59.101Z,99291.19
2018-04-30T05:42:27.380Z,99293.30
2018-04-30T05:44:55.674Z,99300.04
2018-04-30T05:47:23.946Z,99304.52
2018-04-30T05:49:52.215Z,99313.73
2018-04-30T05:52:20.779Z,99316.45
2018-04-30T05:54:49.053Z,99302.55
2018-04-30T05:57:17.318Z,99298.38
2018-04-30T05:59:45.599Z,99299.86
2018-04-30T06:02:13.860Z,99296.69
2018-04-30T06:04:42.142Z,99307.31
2018-04-30T06:07:10.410Z,99325.27
2018-04-30T06:09:38.690Z,99327.69
2018-04-30T06:12:06.986Z,99328.39
2018-04-30T06:14:35.314Z,99338.63
2018-04-30T06:17:03.531Z,99335.27
2018-04-30T06:19:31.795Z,99339.13
2018-04-30T06:22:00.073Z,99344.04
2018-04-30T06:24:29.169Z,99351.36
2018-04-30T06:26:57.552Z,99353.39
2018-04-30T06:29:25.727Z,99356.90
2018-04-30T06:31:54.007Z,99356.23
2018-04-30T06:34:22.270Z,99353.86
2018-04-30T06:36:50.546Z,99349.61
2018-04-30T06:39:18.813Z,99351.64
2018-04-30T06:41:47.162Z,99347.23
2018-04-30T06:44:15.406Z,99362.08
2018-04-30T06:46:43.674Z,99374.75
2018-04-30T06:49:11.954Z,99381.05
2018-04-30T06:51:40.223Z,99388.55
2018-04-30T06:54:08.498Z,99387.10
2018-04-30T06:56:36.762Z,99388.64
2018-04-30T06:59:05.152Z,99392.83
2018-04-30T07:01:33.417Z,99384.06
2018-04-30T07:04:01.682Z,99381.88
2018-04-30T07:06:29.966Z,99391.66
2018-04-30T07:08:58.227Z,99385.72
2018-04-30T07:11:26.506Z,99384.02
2018-04-30T07:13:54.774Z,99387.05
2018-04-30T07:16:23.061Z,99388.12
2018-04-30T07:18:51.327Z,99381.92
2018-04-30T07:21:19.596Z,99377.64
2018-04-30T07:23:47.874Z,99359.09
2018-04-30T07:26:16.151Z,99347.19
2018-04-30T07:28:44.417Z,99350.34
2018-04-30T07:31:12.681Z,99367.21
2018-04-30T07:33:41.004Z,99380.82
2018-04-30T07:36:09.262Z,99376.02
2018-04-30T07:38:37.542Z,99393.21
2018-04-30T07:41:05.827Z,99387.17
2018-04-30T07:43:34.095Z,99384.95
2018-04-30T07:46:02.373Z,99384.22
2018-04-30T07:48:30.637Z,99384.52
2018-04-30T07:50:58.919Z,99385.25
2018-04-30T07:53:27.192Z,99386.18
2018-04-30T07:55:55.450Z,99369.78
2018-04-30T07:58:23.722Z,99364.12
2018-04-30T08:00:51.995Z,99371.91
2018-04-30T08:03:20.266Z,99379.45
2018-04-30T08:05:48.530Z,99372.19
2018-04-30T08:08:16.810Z,99372.11
2018-04-30T08:10:45.067Z,99370.62
2018-04-30T08:13:13.667Z,99368.13
2018-04-30T08:15:41.931Z,99366.03
2018-04-30T08:18:10.225Z,99372.39
2018-04-30T08:20:38.494Z,99380.39
2018-04-30T08:23:06.781Z,99394.84
2018-04-30T08:25:35.058Z,99389.98
2018-04-30T08:28:03.323Z,99391.45
2018-04-30T08:30:31.600Z,99411.95
2018-04-30T08:32:59.885Z,99410.53
2018-04-30T08:35:28.162Z,99420.03
2018-04-30T08:37:56.439Z,99415.33
2018-04-30T08:40:24.718Z,99420.25
2018-04-30T08:42:53.006Z,99424.09
2018-04-30T08:45:21.270Z,99435.31
2018-04-30T08:47:49.566Z,99435.39
2018-04-30T08:50:17.822Z,99444.43
2018-04-30T08:52:46.091Z,99441.05
2018-04-30T08:55:14.377Z,99439.97
2018-04-30T08:57:42.650Z,99431.44
2018-04-30T09:00:10.931Z,99424.80
2018-04-30T09:02:39.209Z,99441.27
2018-04-30T09:05:07.491Z,99437.14
2018-04-30T09:07:35.763Z,99436.94
2018-04-30T09:10:04.035Z,99432.22
2018-04-30T09:12:32.310Z,99440.23
2018-04-30T09:15:00.739Z,99434.45
2018-04-30T09:17:29.046Z,99444.09
2018-04-30T09:19:57.290Z,99451.68
2018-04-30T09:22:25.569Z,99445.74
2018-04-30T09:24:53.846Z,99454.56
2018-04-30T09:27:22.111Z,99461.48
2018-04-30T09:29:50.397Z,99467.41
2018-04-30T09:32:18.677Z,99471.09
2018-04-30T09:34:46.946Z,99475.02
2018-04-30T09:37:15.230Z,99475.50
2018-04-30T09:39:44.424Z,99478.94
2018-04-30T09:42:12.695Z,99487.97
2018-04-30T09:44:40.971Z,99482.84
2018-04-30T09:47:09.256Z,99482.61
2018-04-30T09:49:38.556Z,99476.11
2018-04-30T09:52:06.826Z,99481.96
2018-04-30T09:54:35.111Z,99489.05
2018-04-30T09:57:05.386Z,99486.23
2018-04-30T09:59:33.626Z,99497.98
2018-04-30T10:02:02.508Z,99497.29
2018-04-30T10:04:30.787Z,99492.55
2018-04-30T10:06:59.123Z,99493.64
2018-04-30T10:09:27.422Z,99488.66
2018-04-30T10:11:55.682Z,99487.08
2018-04-30T10:14:23.955Z,99490.51
2018-04-30T10:16:52.247Z,99483.81
2018-04-30T10:19:20.502Z,99479.97
2018-04-30T10:21:48.785Z,99483.66
2018-04-30T10:24:17.051Z,99478.29
2018-04-30T10:26:45.364Z,99473.89
2018-04-30T10:29:13.722Z,99476.09
2018-04-30T10:31:41.954Z,99481.05
2018-04-30T10:34:10.210Z,99475.44
2018-04-30T10:36:38.475Z,99477.55
2018-04-30T10:39:06.758Z,99476.13
2018-04-30T10:41:35.063Z,99469.88
2018-04-30T10:44:03.303Z,99475.07
2018-04-30T10:46:31.585Z,99470.16
2018-04-30T10:48:59.875Z,99470.27
2018-04-30T10:51:28.156Z,99475.12
2018-04-30T10:53:56.698Z,99481.36
2018-04-30T10:56:24.987Z,99478.70
2018-04-30T10:58:53.242Z,99486.78
2018-04-30T11:01:21.533Z,99488.13
2018-04-30T11:03:49.793Z,99484.55
2018-04-30T11:06:18.089Z,99481.06
2018-04-30T11:08:46.541Z,99491.33
2018-04-30T11:11:14.814Z,99471.73
2018-04-30T11:13:43.078Z,99476.03
2018-04-30T11:16:18.380Z,99488.55
2018-04-30T11:18:46.743Z,99470.02
2018-04-30T11:21:15.012Z,99470.39
2018-04-30T11:23:43.361Z,99464.84
2018-04-30T11:26:11.637Z,99468.09
2018-04-30T11:28:39.911Z,99470.57
2018-04-30T11:31:08.190Z,99470.88
2018-04-30T11:33:37.435Z,99467.59
2018-04-30T11:36:05.710Z,99467.80
2018-04-30T11:38:33.998Z,99486.08
2018-04-30T11:41:02.287Z,99498.87
2018-04-30T11:43:30.544Z,99498.06
2018-04-30T11:45:58.840Z,99498.22
2018-04-30T11:48:27.108Z,99505.86
2018-04-30T11:50:55.383Z,99504.70
2018-04-30T11:53:23.648Z,99498.09
2018-04-30T11:55:51.938Z,99508.31
2018-04-30T11:58:20.211Z,99509.67
2018-04-30T12:00:48.476Z,99516.77
2018-04-30T12:03:16.753Z,99507.92
2018-04-30T12:05:45.131Z,99518.47
2018-04-30T12:08:13.425Z,99517.82
2018-04-30T12:10:41.698Z,99542.27
2018-04-30T12:13:09.983Z,99549.84
2018-04-30T12:15:38.256Z,99564.23
2018-04-30T12:18:06.518Z,99564.55
2018-04-30T12:20:34.790Z,99564.13
2018-04-30T12:23:14.062Z,99557.28
2018-04-30T12:25:43.049Z,99569.64
2018-04-30T12:28:11.307Z,99561.41
2018-04-30T12:30:39.583Z,99556.09
2018-04-30T12:33:08.863Z,99562.67
2018-04-30T12:35:37.134Z,99568.71
2018-04-30T12:38:05.434Z,99567.81
2018-04-30T12:40:35.685Z,99569.87
2018-04-30T12:43:03.960Z,99574.34
2018-04-30T12:45:35.523Z,99570.25
2018-04-30T12:48:03.818Z,99573.36
2018-04-30T12:50:38.098Z,99575.20
2018-04-30T12:53:06.388Z,99580.48
2018-04-30T12:55:34.660Z,99583.46
2018-04-30T12:58:06.602Z,99579.27
2018-04-30T13:00:34.891Z,99576.95
2018-04-30T13:03:04.062Z,99575.66
2018-04-30T13:05:32.342Z,99580.52
2018-04-30T13:08:00.614Z,99578.58
2018-04-30T13:10:28.942Z,99593.40
2018-04-30T13:12:57.221Z,99591.29
2018-04-30T13:15:25.579Z,99596.95
2018-04-30T13:17:53.828Z,99602.30
2018-04-30T13:20:22.088Z,99601.19
2018-04-30T13:22:50.394Z,99585.78
2018-04-30T13:25:18.688Z,99574.35
2018-04-30T13:27:46.956Z,99574.08
2018-04-30T13:30:15.215Z,99579.19
2018-04-30T13:32:43.497Z,99592.80
2018-04-30T13:35:17.094Z,99590.20
2018-04-30T13:37:45.378Z,99598.08
2018-04-30T13:40:19.344Z,99606.34
2018-04-30T13:42:55.533Z,99607.35
2018-04-30T13:45:23.798Z,99622.71
2018-04-30T13:47:52.254Z,99629.69
2018-04-30T13:50:20.538Z,99654.14
2018-04-30T13:52:48.794Z,99648.64
2018-04-30T13:55:17.151Z,99646.98
2018-04-30T13:57:46.388Z,99641.50
2018-04-30T14:00:20.370Z,99643.34
2018-04-30T14:02:48.643Z,99654.97
2018-04-30T14:05:16.927Z,99647.25
2018-04-30T14:07:45.197Z,99655.64
2018-04-30T14:10:13.478Z,99658.11
2018-04-30T14:12:49.866Z,99653.80
2018-04-30T14:15:18.227Z,99636.06
2018-04-30T14:17:46.502Z,99630.34
2018-04-30T14:20:14.770Z,99641.48
2018-04-30T14:22:43.081Z,99635.27
2018-04-30T14:25:12.322Z,99637.53
2018-04-30T14:27:41.558Z,99614.87
2018-04-30T14:30:09.866Z,99606.53
2018-04-30T14:32:38.158Z,99611.04
2018-04-30T14:35:06.427Z,99616.75
2018-04-30T14:37:34.693Z,99612.59
2018-04-30T14:40:02.969Z,99621.47
2018-04-30T14:42:31.239Z,99629.88
2018-04-30T14:44:59.523Z,99634.31
2018-04-30T14:47:27.808Z,99636.36
2018-04-30T14:49:56.086Z,99641.03
2018-04-30T14:52:24.378Z,99647.61
2018-04-30T14:54:52.652Z,99650.03
2018-04-30T14:57:20.930Z,99657.13
2018-04-30T14:59:49.225Z,99665.83
2018-04-30T15:02:17.483Z,99658.64
2018-04-30T15:04:45.763Z,99656.81
2018-04-30T15:07:14.044Z,99651.69
2018-04-30T15:09:42.314Z,99654.41
2018-04-30T15:12:10.646Z,99654.98
2018-04-30T15:14:39.925Z,99655.89
2018-04-30T15:17:09.272Z,99655.27
2018-04-30T15:19:37.639Z,99648.86
2018-04-30T15:22:05.815Z,99654.00
2018-04-30T15:24:34.087Z,99657.58
2018-04-30T15:27:02.378Z,99654.34
2018-04-30T15:29:30.657Z,99641.52
2018-04-30T15:31:58.938Z,99653.08
2018-04-30T15:34:27.214Z,99655.03
2018-04-30T15:36:55.483Z,99639.70
2018-04-30T15:39:23.754Z,99645.90
2018-04-30T15:41:52.018Z,99637.38
2018-04-30T15:44:22.215Z,99636.09
2018-04-30T15:46:50.487Z,99621.95
2018-04-30T15:49:19.051Z,99613.95
2018-04-30T15:51:47.321Z,99612.77
2018-04-30T15:54:15.605Z,99599.03
2018-04-30T15:56:43.886Z,99607.98
2018-04-30T15:59:12.195Z,99621.13
2018-04-30T16:01:40.474Z,99619.77
2018-04-30T16:04:08.735Z,99624.48
2018-04-30T16:06:37.940Z,99609.16
2018-04-30T16:09:06.210Z,99614.77
2018-04-30T16:11:34.493Z,99623.60
2018-04-30T16:14:02.793Z,99620.89
2018-04-30T16:16:31.038Z,99618.35
2018-04-30T16:18:59.324Z,99620.81
2018-04-30T16:21:27.626Z,99623.45
2018-04-30T16:23:56.057Z,99611.61
2018-04-30T16:26:25.228Z,99612.81
2018-04-30T16:28:53.507Z,99612.97
2018-04-30T16:31:21.787Z,99607.50
2018-04-30T16:33:50.043Z,99614.20
2018-04-30T16:36:18.331Z,99609.80
2018-04-30T16:38:46.706Z,99616.73
2018-04-30T16:41:14.995Z,99628.54
2018-04-30T16:43:43.383Z,99627.68
2018-04-30T16:46:25.008Z,99615.45
2018-04-30T16:48:58.762Z,99623.47
2018-04-30T16:51:27.014Z,99619.33
2018-04-30T16:53:55.290Z,99616.41
2018-04-30T16:56:23.567Z,99606.39
2018-04-30T16:58:51.855Z,99616.77
2018-04-30T17:01:20.123Z,99611.44
2018-04-30T17:03:48.426Z,99606.64
2018-04-30T17:06:16.678Z,99590.03
2018-04-30T17:08:44.988Z,99607.35
2018-04-30T17:11:13.266Z,99599.58
2018-04-30T17:13:41.546Z,99594.85
2018-04-30T17:16:09.826Z,99598.50
2018-04-30T17:18:39.231Z,99591.50
2018-04-30T17:21:07.497Z,99603.53
2018-04-30T17:23:35.774Z,99606.81
2018-04-30T17:26:04.171Z,99595.27
2018-04-30T17:28:32.547Z,99598.73
2018-04-30T17:31:00.818Z,99598.98
2018-04-30T17:33:29.234Z,99623.84
2018-04-30T17:35:57.901Z,99611.16
2018-04-30T17:38:26.172Z,99630.11
2018-04-30T17:40:54.441Z,99634.22
2018-04-30T17:43:22.783Z,99634.33
2018-04-30T17:45:51.075Z,99633.41
2018-04-30T17:48:19.366Z,99643.86
2018-04-30T17:50:47.636Z,99644.75
2018-04-30T17:53:15.954Z,99656.08
2018-04-30T17:55:44.219Z,99645.84
2018-04-30T17:58:12.511Z,99628.66
2018-04-30T18:00:40.873Z,99638.27
2018-04-30T18:03:09.091Z,99639.95
2018-04-30T18:05:37.367Z,99641.92
2018-04-30T18:08:05.651Z,99639.34
2018-04-30T18:10:33.919Z,99639.55
2018-04-30T18:13:02.197Z,99636.58
2018-04-30T18:15:30.470Z,99647.69
2018-04-30T18:17:58.789Z,99652.52
2018-04-30T18:20:27.099Z,99639.86
2018-04-30T18:22:55.383Z,99640.61
2018-04-30T18:25:23.691Z,99646.12
2018-04-30T18:27:51.991Z,99639.45
2018-04-30T18:30:20.267Z,99646.92
2018-04-30T18:32:48.575Z,99643.94
2018-04-30T18:35:17.859Z,99641.73
2018-04-30T18:37:46.275Z,99650.09
2018-04-30T18:40:14.510Z,99639.69
2018-04-30T18:42:42.803Z,99649.78
2018-04-30T18:45:12.124Z,99648.00
2018-04-30T18:47:40.611Z,99645.58
2018-04-30T18:50:08.926Z,99646.80
2018-04-30T18:52:37.208Z,99647.12
2018-04-30T18:55:05.488Z,99652.17
2018-04-30T18:57:33.773Z,99643.37
2018-04-30T19:00:03.096Z,99644.83
2018-04-30T19:02:31.441Z,99645.48
2018-04-30T19:04:59.662Z,99648.50
2018-04-30T19:07:27.915Z,99647.25
2018-04-30T19:09:56.205Z,99670.81
2018-04-30T19:12:24.482Z,99674.66
2018-04-30T19:14:52.751Z,99674.84
2018-04-30T19:17:21.063Z,99675.63
2018-04-30T19:19:49.335Z,99680.25
2018-04-30T19:22:17.615Z,99709.23
2018-04-30T19:24:45.875Z,99694.86
2018-04-30T19:27:14.180Z,99696.31
2018-04-30T19:29:42.430Z,99700.95
2018-04-30T19:32:10.694Z,99698.33
2018-04-30T19:34:38.965Z,99706.95
2018-04-30T19:37:07.279Z,99728.47
2018-04-30T19:39:35.732Z,99715.25
2018-04-30T19:42:03.978Z,99719.65
2018-04-30T19:44:32.261Z,99709.84
2018-04-30T19:47:00.541Z,99715.48
2018-04-30T19:49:28.950Z,99719.02
2018-04-30T19:51:57.223Z,99718.89
2018-04-30T19:54:25.498Z,99726.57
2018-04-30T19:56:53.787Z,99726.00
2018-04-30T19:59:22.214Z,99716.23
2018-04-30T20:01:50.546Z,99715.30
2018-04-30T20:04:19.105Z,99713.69
2018-04-30T20:06:47.393Z,99721.80
2018-04-30T20:09:15.654Z,99719.33
2018-04-30T20:11:43.918Z,99715.94
2018-04-30T20:14:12.254Z,99713.09
2018-04-30T20:16:40.525Z,99721.81
2018-04-30T20:19:08.810Z,99724.89
2018-04-30T20:21:37.103Z,99726.31
2018-04-30T20:24:05.398Z,99731.07
2018-04-30T20:26:33.686Z,99749.14
2018-04-30T20:29:02.114Z,99754.33
2018-04-30T20:31:30.397Z,99755.63
2018-04-30T20:33:58.674Z,99771.34
2018-04-30T20:36:26.957Z,99760.48
2018-04-30T20:38:55.263Z,99752.64
2018-04-30T20:41:23.558Z,99747.30
2018-04-30T20:43:51.809Z,99750.81
2018-04-30T20:46:20.087Z,99760.44
2018-04-30T20:48:48.427Z,99764.43
2018-04-30T20:51:16.754Z,99762.45
2018-04-30T20:53:45.039Z,99756.07
2018-04-30T20:56:13.319Z,99758.95
2018-04-30T20:58:41.613Z,99754.97
2018-04-30T21:01:09.881Z,99760.78
2018-04-30T21:03:38.154Z,99765.09
2018-04-30T21:06:06.744Z,99759.91
2018-04-30T21:08:46.908Z,99765.91
2018-04-30T21:11:15.182Z,99775.67
2018-04-30T21:13:43.467Z,99776.67
2018-04-30T21:16:12.273Z,99777.63
2018-04-30T21:18:40.554Z,99784.50
2018-04-30T21:21:08.846Z,99781.95
2018-04-30T21:23:37.114Z,99783.30
2018-04-30T21:26:05.382Z,99791.84
2018-04-30T21:28:33.654Z,99802.27
2018-04-30T21:31:01.964Z,99798.45
2018-04-30T21:33:30.251Z,99798.02
2018-04-30T21:35:58.524Z,99806.20
2018-04-30T21:38:26.792Z,99808.35
2018-04-30T21:40:55.071Z,99818.30
2018-04-30T21:43:23.354Z,99832.66
2018-04-30T21:45:51.635Z,99833.02
2018-04-30T21:48:19.916Z,99836.20
2018-04-30T21:50:48.186Z,99844.52
2018-04-30T21:53:16.452Z,99840.55
2018-04-30T21:55:44.727Z,99850.42
2018-04-30T21:58:13.002Z,99848.05
2018-04-30T22:00:41.266Z,99845.78
2018-04-30T22:03:09.532Z,99853.22
2018-04-30T22:05:37.785Z,99860.50
2018-04-30T22:08:06.081Z,99868.95
2018-04-30T22:10:34.347Z,99875.83
2018-04-30T22:13:02.607Z,99885.55
2018-04-30T22:15:30.957Z,99884.88
2018-04-30T22:17:59.144Z,99893.97
2018-04-30T22:20:27.410Z,99901.34
2018-04-30T22:22:55.694Z,99903.41
2018-04-30T22:25:24.013Z,99905.25
2018-04-30T22:27:52.294Z,99906.95
2018-04-30T22:30:20.554Z,99905.74
2018-04-30T22:32:48.813Z,99907.03
2018-04-30T22:35:17.111Z,99911.32
2018-04-30T22:37:45.381Z,99900.56
2018-04-30T22:40:13.674Z,99905.25
2018-04-30T22:42:41.939Z,99920.24
2018-04-30T22:45:10.198Z,99931.99
2018-04-30T22:47:38.463Z,99943.27
2018-04-30T22:50:06.723Z,99931.15
2018-04-30T22:52:35.024Z,99936.38
2018-04-30T22:55:03.296Z,99949.69
2018-04-30T22:57:31.575Z,99954.52
2018-04-30T22:59:59.826Z,99963.58
2018-04-30T23:02:28.133Z,99957.45
2018-04-30T23:04:56.392Z,99965.23
2018-04-30T23:07:24.802Z,99971.27
2018-04-30T23:09:53.060Z,99967.08
2018-04-30T23:12:21.328Z,99970.41
2018-04-30T23:14:49.594Z,99970.95
2018-04-30T23:17:17.858Z,99971.00
2018-04-30T23:19:46.160Z,99970.87
2018-04-30T23:22:15.226Z,99970.03
2018-04-30T23:24:43.507Z,99962.16
2018-04-30T23:27:11.782Z,99967.81
2018-04-30T23:29:40.191Z,99965.17
2018-04-30T23:32:08.470Z,99967.58
2018-04-30T23:34:36.722Z,99973.52
2018-04-30T23:37:05.025Z,99970.55
2018-04-30T23:39:33.269Z,99972.32
2018-04-30T23:42:01.538Z,99976.16
2018-04-30T23:44:29.817Z,99982.25
2018-04-30T23:46:58.090Z,99983.50
2018-04-30T23:49:26.355Z,99989.91
2018-04-30T23:51:54.609Z,99990.38
2018-04-30T23:54:22.873Z,99993.84
2018-04-30T23:56:51.163Z,100005.33
2018-04-30T23:59:19.424Z,99995.53
